Time;durP1;ratioP1;P1;durP2;ratioP2;P2;SDS_P1;SDS_P2;PMS_P1;PMS_P2;Temp;Humidity;BMP_temperature;BMP_pressure;BME280_temperature;BME280_humidity;BME280_pressure;Samples;Min_cycle;Max_cycle;Signal;HPM_P1;HPM_P2
2023/04/17 00:02:02;;;;;;;125.68;98.50;;;11.80;99.90;;;;;;4982390;28;20038;-86
2023/04/17 00:04:29;;;;;;;91.95;76.10;;;12.10;99.90;;;;;;4978489;28;20413;-86
2023/04/17 00:06:55;;;;;;;97.95;74.68;;;13.90;99.90;;;;;;4975554;28;20056;-86
2023/04/17 00:09:21;;;;;;;110.85;86.22;;;13.70;99.90;;;;;;4997755;28;20616;-86
2023/04/17 00:11:46;;;;;;;92.55;80.45;;;11.60;99.90;;;;;;4977665;28;20034;-86
2023/04/17 00:14:12;;;;;;;93.43;76.57;;;11.90;99.90;;;;;;5000998;28;20042;-86
2023/04/17 00:16:38;;;;;;;73.00;60.30;;;13.90;99.90;;;;;;4981644;28;20038;-86
2023/04/17 00:19:04;;;;;;;82.22;57.22;;;12.40;99.90;;;;;;5001626;28;20069;-86
2023/04/17 00:21:30;;;;;;;59.85;44.30;;;13.80;99.90;;;;;;5002269;28;20444;-86
2023/04/17 00:23:57;;;;;;;83.53;67.55;;;11.60;99.90;;;;;;4980805;28;20042;-86
2023/04/17 00:26:22;;;;;;;101.85;79.75;;;12.80;99.90;;;;;;4984997;28;20037;-86
2023/04/17 00:28:49;;;;;;;107.40;83.03;;;12.00;99.90;;;;;;4981191;28;20367;-86
2023/04/17 00:31:15;;;;;;;82.13;60.88;;;13.30;99.90;;;;;;4978017;28;20042;-86
2023/04/17 00:33:41;;;;;;;73.65;50.35;;;13.40;99.90;;;;;;5003378;28;20049;-85
2023/04/17 00:36:07;;;;;;;89.78;73.10;;;12.00;99.90;;;;;;4980032;28;20034;-89
2023/04/17 00:38:33;;;;;;;85.85;66.95;;;11.90;99.90;;;;;;4978050;28;20426;-89
2023/04/17 00:40:59;;;;;;;84.45;60.83;;;11.70;99.90;;;;;;4995368;28;20045;-89
2023/04/17 00:43:24;;;;;;;95.15;72.85;;;13.80;99.90;;;;;;4977355;28;20038;-89
2023/04/17 00:45:51;;;;;;;81.30;55.92;;;11.50;99.90;;;;;;4984970;28;20573;-89
2023/04/17 00:48:17;;;;;;;92.03;69.32;;;11.80;99.90;;;;;;5004979;28;20045;-88
2023/04/17 00:50:44;;;;;;;88.72;61.30;;;13.90;99.90;;;;;;4993426;28;20328;-89
2023/04/17 00:53:10;;;;;;;71.45;56.50;;;13.60;99.90;;;;;;4995568;28;20107;-89
2023/04/17 00:55:38;;;;;;;69.25;51.53;;;12.50;99.90;;;;;;4978613;28;20034;-89
2023/04/17 00:58:04;;;;;;;81.95;63.00;;;12.70;99.90;;;;;;4977968;28;20069;-89
2023/04/17 01:00:30;;;;;;;94.47;82.82;;;11.60;99.90;;;;;;4997459;28;20033;-89
2023/04/17 01:02:59;;;;;;;94.88;77.25;;;13.70;99.90;;;;;;4979246;28;20042;-90
2023/04/17 01:05:26;;;;;;;77.18;58.08;;;13.90;99.90;;;;;;4981103;28;20038;-89
2023/04/17 01:07:53;;;;;;;89.28;72.05;;;13.50;99.90;;;;;;4998810;28;20049;-89
2023/04/17 01:10:19;;;;;;;86.80;63.00;;;11.80;99.90;;;;;;4996665;28;20069;-89
2023/04/17 01:12:48;;;;;;;93.10;70.53;;;11.80;99.90;;;;;;4995242;28;20096;-89
2023/04/17 01:15:14;;;;;;;80.78;52.63;;;11.60;99.90;;;;;;4981996;28;20042;-89
2023/04/17 01:17:39;;;;;;;83.63;69.32;;;11.90;99.90;;;;;;4984701;28;20510;-89
2023/04/17 01:20:09;;;;;;;105.30;88.25;;;11.50;99.90;;;;;;4999010;28;20080;-89
2023/04/17 01:22:35;;;;;;;71.50;56.42;;;11.60;99.90;;;;;;4990753;28;20670;-89
2023/04/17 01:25:01;;;;;;;84.88;71.45;;;11.90;99.90;;;;;;4981053;28;20152;-89
2023/04/17 01:27:26;;;;;;;96.07;79.15;;;11.90;99.90;;;;;;4982368;28;20084;-90
2023/04/17 01:29:52;;;;;;;110.43;73.88;;;11.70;99.90;;;;;;4980112;28;20065;-89
2023/04/17 01:32:17;;;;;;;73.07;54.42;;;13.10;99.90;;;;;;4976613;28;20111;-89
2023/04/17 01:34:43;;;;;;;97.47;77.05;;;13.40;99.90;;;;;;4995366;28;20460;-89
2023/04/17 01:37:09;;;;;;;71.40;57.63;;;11.50;99.90;;;;;;4992283;28;20065;-89
2023/04/17 01:39:35;;;;;;;58.47;48.53;;;13.00;99.90;;;;;;4984678;28;20125;-91
2023/04/17 01:42:01;;;;;;;74.90;59.92;;;13.50;99.90;;;;;;4997034;28;20038;-89
2023/04/17 01:44:27;;;;;;;84.43;64.88;;;13.60;99.90;;;;;;4999022;28;20302;-89
2023/04/17 01:46:52;;;;;;;97.15;70.32;;;11.70;99.90;;;;;;4978984;28;20050;-89
2023/04/17 01:49:18;;;;;;;70.82;52.88;;;13.00;99.90;;;;;;4976696;28;20042;-89
2023/04/17 01:51:44;;;;;;;98.28;82.80;;;11.70;99.90;;;;;;4979756;28;20478;-89
2023/04/17 01:54:09;;;;;;;70.20;58.30;;;11.90;99.90;;;;;;4982262;28;20045;-89
2023/04/17 01:56:35;;;;;;;64.53;52.53;;;11.60;99.90;;;;;;4975262;28;20035;-89
2023/04/17 01:59:00;;;;;;;76.03;60.65;;;11.90;99.90;;;;;;4980768;28;20049;-89
2023/04/17 02:01:26;;;;;;;91.82;73.60;;;11.60;99.90;;;;;;4998752;28;20479;-89
2023/04/17 02:03:52;;;;;;;91.43;75.95;;;13.50;99.90;;;;;;4982963;28;20033;-89
2023/04/17 02:06:17;;;;;;;48.53;36.78;;;13.30;99.90;;;;;;4977542;28;20410;-89
2023/04/17 02:08:43;;;;;;;57.60;37.33;;;12.00;99.90;;;;;;4997505;28;20070;-89
2023/04/17 02:11:09;;;;;;;61.97;45.53;;;11.60;99.90;;;;;;4979757;28;20042;-89
2023/04/17 02:13:34;;;;;;;54.70;36.38;;;13.70;99.90;;;;;;4998269;28;20089;-89
2023/04/17 02:16:00;;;;;;;68.97;47.72;;;11.50;99.90;;;;;;4984051;28;20030;-89
2023/04/17 02:18:27;;;;;;;58.28;41.20;;;13.60;99.90;;;;;;4980681;28;20499;-89
2023/04/17 02:20:52;;;;;;;60.97;39.42;;;11.70;99.90;;;;;;4992087;28;20117;-89
2023/04/17 02:23:18;;;;;;;65.03;51.50;;;11.80;99.90;;;;;;5000007;28;20129;-89
2023/04/17 02:25:44;;;;;;;57.20;37.25;;;11.80;99.90;;;;;;4999550;28;20085;-89
2023/04/17 02:28:09;;;;;;;72.55;48.55;;;13.20;99.90;;;;;;4998813;28;20046;-89
2023/04/17 02:30:35;;;;;;;66.82;50.10;;;12.90;99.90;;;;;;4992428;28;20042;-89
2023/04/17 02:33:01;;;;;;;63.70;44.80;;;11.80;99.90;;;;;;4979935;28;20628;-89
2023/04/17 02:35:28;;;;;;;73.10;48.70;;;11.90;99.90;;;;;;4974443;28;20615;-90
2023/04/17 02:37:54;;;;;;;69.05;43.85;;;12.50;99.90;;;;;;4994688;28;20078;-91
2023/04/17 02:40:20;;;;;;;60.72;40.90;;;11.60;99.90;;;;;;4977397;28;21194;-90
2023/04/17 02:42:45;;;;;;;86.97;69.95;;;11.60;99.90;;;;;;4978678;28;20039;-90
2023/04/17 02:45:11;;;;;;;63.78;40.47;;;13.10;99.90;;;;;;4998367;28;20128;-90
2023/04/17 02:47:37;;;;;;;55.63;36.40;;;12.40;99.90;;;;;;4978605;28;20042;-91
2023/04/17 02:50:05;;;;;;;65.55;42.08;;;11.90;99.90;;;;;;4990589;28;20089;-90
2023/04/17 02:52:31;;;;;;;87.45;70.13;;;12.00;99.90;;;;;;4996220;28;20167;-91
2023/04/17 02:54:57;;;;;;;73.00;46.50;;;13.70;99.90;;;;;;4979349;28;20029;-91
2023/04/17 02:57:23;;;;;;;71.50;45.70;;;11.60;99.90;;;;;;4992919;28;20116;-91
2023/04/17 02:59:49;;;;;;;71.55;52.72;;;11.90;99.90;;;;;;4978022;28;20125;-90
2023/04/17 03:02:20;;;;;;;88.30;59.55;;;11.80;99.90;;;;;;4994995;28;20380;-90
2023/04/17 03:04:50;;;;;;;82.53;53.60;;;12.90;99.90;;;;;;4992683;28;20042;-90
2023/04/17 03:07:20;;;;;;;71.35;49.40;;;11.90;99.90;;;;;;4976844;28;20045;-90
2023/04/17 03:09:46;;;;;;;70.00;50.75;;;11.40;99.90;;;;;;4998975;28;20045;-90
2023/04/17 03:12:15;;;;;;;76.15;52.80;;;12.60;99.90;;;;;;4977234;28;20506;-90
2023/04/17 03:14:42;;;;;;;82.50;54.22;;;11.90;99.90;;;;;;4981588;28;20038;-91
2023/04/17 03:17:09;;;;;;;69.72;44.00;;;11.30;99.90;;;;;;5000790;28;20045;-91
2023/04/17 03:19:34;;;;;;;100.82;61.38;;;11.20;99.90;;;;;;4975669;28;20042;-90
2023/04/17 03:22:01;;;;;;;94.13;46.92;;;11.80;99.90;;;;;;4974089;28;20048;-91
2023/04/17 03:24:27;;;;;;;92.90;40.78;;;11.40;99.90;;;;;;4995920;28;20121;-90
2023/04/17 03:26:53;;;;;;;98.18;53.35;;;12.50;99.90;;;;;;4998836;28;20133;-90
2023/04/17 03:29:18;;;;;;;192.43;66.35;;;11.60;99.90;;;;;;4974888;28;20578;-90
2023/04/17 03:31:44;;;;;;;129.98;70.32;;;11.70;99.90;;;;;;4995280;28;20065;-90
2023/04/17 03:34:09;;;;;;;102.20;47.17;;;11.80;99.90;;;;;;4979383;28;20093;-90
2023/04/17 03:36:35;;;;;;;150.75;62.45;;;11.40;99.90;;;;;;4979543;28;20073;-90
2023/04/17 03:39:01;;;;;;;82.35;43.90;;;11.30;99.90;;;;;;4976490;28;20062;-91
2023/04/17 03:41:26;;;;;;;159.85;52.72;;;11.40;99.90;;;;;;4976579;28;20042;-90
2023/04/17 03:43:52;;;;;;;132.98;62.65;;;11.60;99.90;;;;;;4978720;28;20361;-90
2023/04/17 03:46:18;;;;;;;175.07;46.33;;;11.50;99.90;;;;;;4982079;28;20054;-90
2023/04/17 03:48:43;;;;;;;188.57;47.20;;;11.60;99.90;;;;;;4982843;28;20517;-91
2023/04/17 03:51:09;;;;;;;228.35;47.05;;;11.30;99.90;;;;;;4996085;28;20052;-90
2023/04/17 03:53:35;;;;;;;271.73;48.97;;;12.70;99.90;;;;;;4983489;28;20165;-92
2023/04/17 03:56:00;;;;;;;378.27;63.58;;;11.10;99.90;;;;;;4985427;28;20089;-91
2023/04/17 03:58:26;;;;;;;312.08;52.47;;;11.60;99.90;;;;;;5000516;28;20386;-90
2023/04/17 04:00:57;;;;;;;132.00;42.55;;;11.30;99.90;;;;;;4998093;28;20046;-90
2023/04/17 04:03:23;;;;;;;171.32;43.83;;;11.70;99.90;;;;;;4997532;28;20042;-91
2023/04/17 04:05:49;;;;;;;153.20;43.65;;;13.60;99.90;;;;;;4980481;28;20056;-90
2023/04/17 04:08:15;;;;;;;301.90;58.75;;;12.60;99.90;;;;;;4980450;28;20042;-90
2023/04/17 04:10:43;;;;;;;248.32;75.47;;;12.20;99.90;;;;;;4981702;28;20050;-91
2023/04/17 04:13:09;;;;;;;345.30;71.47;;;11.40;99.90;;;;;;4987455;28;20064;-90
2023/04/17 04:15:35;;;;;;;162.88;48.65;;;13.20;99.90;;;;;;4984235;28;20037;-90
2023/04/17 04:18:01;;;;;;;141.57;66.38;;;11.30;99.90;;;;;;5000971;28;20512;-91
2023/04/17 04:20:27;;;;;;;204.05;79.13;;;11.40;99.90;;;;;;4991857;28;20912;-90
2023/04/17 04:22:56;;;;;;;116.15;58.55;;;11.50;99.90;;;;;;4999672;28;20042;-90
2023/04/17 04:25:22;;;;;;;92.80;50.13;;;12.70;99.90;;;;;;4986041;28;20057;-90
2023/04/17 04:27:50;;;;;;;132.75;65.07;;;11.30;99.90;;;;;;4985718;28;20038;-90
2023/04/17 04:30:16;;;;;;;149.90;61.00;;;11.30;99.90;;;;;;4983642;28;20041;-90
2023/04/17 04:32:44;;;;;;;142.55;71.45;;;13.50;99.90;;;;;;4979480;28;20088;-90
2023/04/17 04:35:10;;;;;;;186.35;65.30;;;11.60;99.90;;;;;;4999323;28;20057;-90
2023/04/17 04:37:36;;;;;;;183.30;59.78;;;12.20;99.90;;;;;;4982716;28;20141;-90
2023/04/17 04:40:09;;;;;;;114.38;54.45;;;13.00;99.90;;;;;;4982611;28;20225;-91
2023/04/17 04:42:35;;;;;;;148.32;53.90;;;11.70;99.90;;;;;;4979077;28;20045;-91
2023/04/17 04:45:01;;;;;;;171.27;51.85;;;11.50;99.90;;;;;;4981828;28;20048;-90
2023/04/17 04:47:27;;;;;;;195.85;73.57;;;11.70;99.90;;;;;;4998275;28;20046;-90
2023/04/17 04:49:52;;;;;;;199.88;76.78;;;11.60;99.90;;;;;;4982703;28;20046;-90
2023/04/17 04:52:18;;;;;;;125.80;53.25;;;12.80;99.90;;;;;;4981129;28;20038;-85
2023/04/17 04:54:43;;;;;;;113.75;56.15;;;13.30;99.90;;;;;;4983355;28;20065;-85
2023/04/17 04:57:09;;;;;;;115.13;64.70;;;11.50;99.90;;;;;;4978141;28;20037;-85
2023/04/17 04:59:35;;;;;;;88.90;47.13;;;11.70;99.90;;;;;;4982378;28;20456;-84
2023/04/17 05:02:00;;;;;;;205.23;76.80;;;11.60;99.90;;;;;;4998909;28;20188;-85
2023/04/17 05:04:26;;;;;;;176.40;69.30;;;13.20;99.90;;;;;;4978448;28;20054;-85
2023/04/17 05:06:51;;;;;;;136.90;68.35;;;11.50;99.90;;;;;;4975594;28;20045;-85
2023/04/17 05:09:17;;;;;;;187.85;78.60;;;11.50;99.90;;;;;;4981747;28;20083;-84
2023/04/17 05:11:42;;;;;;;153.35;73.97;;;11.70;99.90;;;;;;4980689;28;20034;-84
2023/04/17 05:14:08;;;;;;;155.52;68.47;;;13.50;99.90;;;;;;4979165;28;20155;-84
2023/04/17 05:16:34;;;;;;;119.20;49.92;;;11.40;99.90;;;;;;4976907;28;20045;-84
2023/04/17 05:18:59;;;;;;;113.97;50.38;;;12.90;99.90;;;;;;4982899;28;20143;-85
2023/04/17 05:21:26;;;;;;;119.75;57.60;;;11.80;99.90;;;;;;4980122;28;20033;-85
2023/04/17 05:23:52;;;;;;;148.10;62.25;;;11.80;99.90;;;;;;4992901;28;20042;-84
2023/04/17 05:26:20;;;;;;;143.98;77.28;;;11.60;99.90;;;;;;4976737;28;20095;-85
2023/04/17 05:28:46;;;;;;;106.80;64.28;;;11.50;99.90;;;;;;4998203;28;20045;-84
2023/04/17 05:31:12;;;;;;;131.75;68.72;;;11.40;99.90;;;;;;4982291;28;20050;-84
2023/04/17 05:33:38;;;;;;;137.13;80.90;;;11.40;99.90;;;;;;4991028;28;20387;-84
2023/04/17 05:36:04;;;;;;;105.93;54.92;;;11.10;99.90;;;;;;4984676;28;20049;-84
2023/04/17 05:38:30;;;;;;;108.03;55.22;;;11.70;99.90;;;;;;4989646;28;20493;-84
2023/04/17 05:40:56;;;;;;;139.02;77.10;;;13.40;99.90;;;;;;4981777;28;20091;-84
2023/04/17 05:43:22;;;;;;;147.23;76.93;;;13.60;99.90;;;;;;4977325;28;20050;-84
2023/04/17 05:45:47;;;;;;;119.43;72.32;;;12.10;99.90;;;;;;4989654;28;20049;-85
2023/04/17 05:48:13;;;;;;;136.60;76.03;;;12.70;99.90;;;;;;4993290;28;20064;-84
2023/04/17 05:50:39;;;;;;;121.72;73.28;;;12.30;99.90;;;;;;4977615;28;20042;-84
2023/04/17 05:53:04;;;;;;;97.40;50.50;;;12.20;99.90;;;;;;4975991;28;20038;-84
2023/04/17 05:55:30;;;;;;;98.38;50.70;;;11.50;99.90;;;;;;4976915;28;20042;-84
2023/04/17 05:57:56;;;;;;;117.30;64.93;;;13.30;99.90;;;;;;4979013;28;20038;-84
2023/04/17 06:00:22;;;;;;;122.25;71.72;;;12.80;99.90;;;;;;4985248;28;20038;-84
2023/04/17 06:02:48;;;;;;;112.70;62.45;;;13.80;99.90;;;;;;4980563;28;20047;-84
2023/04/17 06:05:15;;;;;;;143.32;71.63;;;13.10;99.90;;;;;;4979213;28;20506;-84
2023/04/17 06:07:41;;;;;;;139.20;65.35;;;11.70;99.90;;;;;;4996428;28;20107;-84
2023/04/17 06:10:10;;;;;;;145.88;76.97;;;13.20;99.90;;;;;;5002718;28;20057;-84
2023/04/17 06:12:36;;;;;;;139.43;79.28;;;12.30;99.90;;;;;;4994461;28;20047;-84
2023/04/17 06:15:03;;;;;;;122.13;60.40;;;12.20;99.90;;;;;;4984248;28;20038;-84
2023/04/17 06:17:29;;;;;;;109.82;77.15;;;11.70;99.90;;;;;;4993251;28;20121;-83
2023/04/17 06:19:55;;;;;;;126.03;89.22;;;13.90;99.90;;;;;;4985100;28;20402;-83
2023/04/17 06:22:21;;;;;;;109.10;57.92;;;13.60;99.90;;;;;;4988604;28;20041;-83
2023/04/17 06:24:47;;;;;;;115.93;58.08;;;11.90;99.90;;;;;;5001764;28;20494;-83
2023/04/17 06:27:12;;;;;;;114.57;52.05;;;11.80;99.90;;;;;;4985419;28;20034;-83
2023/04/17 06:29:38;;;;;;;118.95;55.88;;;12.50;99.90;;;;;;4984760;28;20041;-83
2023/04/17 06:32:05;;;;;;;129.60;53.35;;;11.90;99.90;;;;;;4998686;28;20547;-83
2023/04/17 06:34:30;;;;;;;133.00;68.80;;;12.40;99.90;;;;;;4996992;28;20042;-83
2023/04/17 06:36:57;;;;;;;118.55;56.15;;;13.80;99.90;;;;;;5002715;28;20037;-83
2023/04/17 06:39:23;;;;;;;113.78;60.15;;;12.10;99.90;;;;;;4997998;28;20100;-85
2023/04/17 06:41:49;;;;;;;88.13;46.92;;;12.00;99.90;;;;;;4988263;28;20041;-84
2023/04/17 06:44:15;;;;;;;107.13;52.08;;;13.70;99.90;;;;;;4985193;28;20041;-82
2023/04/17 06:46:41;;;;;;;78.20;45.92;;;12.00;99.90;;;;;;4980907;28;20044;-83
2023/04/17 06:49:06;;;;;;;70.43;42.53;;;13.80;99.90;;;;;;4979899;28;20034;-83
2023/04/17 06:51:32;;;;;;;75.57;48.72;;;13.90;99.90;;;;;;4979043;28;20395;-83
2023/04/17 06:53:58;;;;;;;72.50;44.10;;;12.50;99.90;;;;;;4982170;28;20044;-82
2023/04/17 06:56:24;;;;;;;81.57;50.30;;;14.50;99.90;;;;;;5002836;28;20088;-82
2023/04/17 06:58:52;;;;;;;97.30;54.72;;;12.30;99.90;;;;;;4983588;28;20042;-83
2023/04/17 07:01:17;;;;;;;105.68;72.55;;;12.00;99.90;;;;;;4988159;28;20042;-82
2023/04/17 07:03:43;;;;;;;103.28;61.03;;;12.60;99.90;;;;;;4983329;28;20552;-83
2023/04/17 07:06:09;;;;;;;78.38;51.67;;;13.80;99.90;;;;;;4988050;28;20049;-83
2023/04/17 07:08:34;;;;;;;90.05;50.47;;;12.60;99.90;;;;;;5000549;28;20502;-83
2023/04/17 07:11:01;;;;;;;100.82;61.92;;;12.70;99.90;;;;;;4987539;28;20120;-83
2023/04/17 07:13:30;;;;;;;72.28;46.55;;;13.70;99.90;;;;;;4995295;28;20575;-82
2023/04/17 07:15:57;;;;;;;75.60;53.13;;;12.30;99.90;;;;;;4980226;28;20034;-82
2023/04/17 07:18:25;;;;;;;123.18;86.07;;;12.80;99.90;;;;;;4986344;28;20037;-83
2023/04/17 07:20:51;;;;;;;82.28;47.95;;;13.70;99.90;;;;;;4995454;28;20038;-83
2023/04/17 07:23:16;;;;;;;76.97;50.03;;;13.80;99.90;;;;;;5003230;28;20042;-83
2023/04/17 07:25:45;;;;;;;86.28;67.28;;;13.50;99.90;;;;;;4994521;28;20583;-83
2023/04/17 07:28:11;;;;;;;74.78;55.45;;;12.80;99.90;;;;;;4995314;28;20049;-83
2023/04/17 07:30:36;;;;;;;81.25;53.17;;;12.70;99.90;;;;;;4976264;28;20038;-83
2023/04/17 07:33:02;;;;;;;86.72;58.22;;;12.40;99.90;;;;;;4997554;28;20046;-83
2023/04/17 07:35:28;;;;;;;73.32;47.63;;;14.20;99.90;;;;;;4976439;28;20452;-82
2023/04/17 07:37:56;;;;;;;70.50;50.08;;;12.80;99.90;;;;;;4976049;28;20056;-83
2023/04/17 07:40:22;;;;;;;71.53;51.25;;;12.80;99.90;;;;;;4994710;28;20569;-83
2023/04/17 07:42:48;;;;;;;88.78;67.97;;;13.00;99.90;;;;;;4983125;28;20054;-83
2023/04/17 07:45:13;;;;;;;97.70;63.90;;;12.70;99.90;;;;;;4978922;28;20488;-82
2023/04/17 07:47:39;;;;;;;76.88;54.03;;;12.70;99.90;;;;;;4983405;28;20112;-82
2023/04/17 07:50:05;;;;;;;71.00;40.25;;;14.00;99.90;;;;;;4975827;28;20045;-83
2023/04/17 07:52:31;;;;;;;95.13;59.83;;;12.40;99.90;;;;;;4991358;28;20125;-83
2023/04/17 07:54:56;;;;;;;89.80;61.83;;;13.50;99.90;;;;;;4998444;28;20695;-82
2023/04/17 07:57:25;;;;;;;87.53;62.15;;;12.70;99.90;;;;;;5001872;28;20035;-83
2023/04/17 07:59:52;;;;;;;92.28;64.63;;;12.60;99.90;;;;;;4980954;28;20045;-83
2023/04/17 08:02:18;;;;;;;77.60;57.17;;;13.00;99.90;;;;;;4994770;28;20092;-83
2023/04/17 08:04:44;;;;;;;61.17;47.20;;;14.60;99.90;;;;;;4997010;28;20120;-83
2023/04/17 08:07:11;;;;;;;64.80;49.38;;;13.30;99.90;;;;;;4998664;28;20080;-82
2023/04/17 08:09:37;;;;;;;64.43;51.83;;;12.80;99.90;;;;;;4999095;28;20414;-83
2023/04/17 08:12:03;;;;;;;64.07;45.20;;;14.50;99.90;;;;;;4989359;28;20074;-83
2023/04/17 08:14:29;;;;;;;87.63;69.82;;;12.80;99.90;;;;;;4997283;28;20061;-83
2023/04/17 08:16:55;;;;;;;73.28;55.08;;;12.80;99.90;;;;;;4975370;28;20038;-84
2023/04/17 08:19:20;;;;;;;59.13;41.35;;;14.60;99.90;;;;;;4979492;28;20494;-83
2023/04/17 08:21:47;;;;;;;82.85;62.70;;;13.70;99.90;;;;;;4992722;28;20039;-83
2023/04/17 08:24:12;;;;;;;73.13;57.13;;;12.90;99.90;;;;;;5001224;28;20061;-83
2023/04/17 08:26:38;;;;;;;70.28;57.40;;;13.40;99.90;;;;;;4987115;28;20038;-83
2023/04/17 08:29:03;;;;;;;76.03;60.65;;;14.20;99.90;;;;;;4980918;28;20053;-84
2023/04/17 08:31:30;;;;;;;82.55;67.30;;;13.50;99.90;;;;;;4983994;28;20037;-83
2023/04/17 08:33:56;;;;;;;81.20;67.40;;;13.40;99.90;;;;;;4984289;28;20038;-83
2023/04/17 08:36:21;;;;;;;103.32;87.43;;;15.00;99.90;;;;;;4989918;28;20140;-82
2023/04/17 08:38:47;;;;;;;76.95;66.25;;;14.80;99.90;;;;;;4983882;28;20553;-82
2023/04/17 08:41:23;;;;;;;77.28;68.55;;;13.30;99.90;;;;;;4986134;28;20504;-82
2023/04/17 08:43:49;;;;;;;69.53;56.92;;;14.50;99.90;;;;;;4989767;28;20490;-82
2023/04/17 08:46:17;;;;;;;71.28;58.40;;;12.90;99.90;;;;;;4991752;28;20034;-83
2023/04/17 08:48:43;;;;;;;90.97;70.72;;;13.00;99.90;;;;;;5000502;28;20050;-83
2023/04/17 08:51:09;;;;;;;118.78;105.72;;;14.80;99.90;;;;;;5000314;28;20486;-83
2023/04/17 08:53:35;;;;;;;79.90;69.05;;;15.00;99.90;;;;;;4984182;28;20489;-83
2023/04/17 08:56:05;;;;;;;72.70;61.13;;;13.00;99.90;;;;;;5000097;28;20045;-83
2023/04/17 08:58:34;;;;;;;53.60;47.88;;;13.40;99.90;;;;;;5002768;28;20046;-83
2023/04/17 09:01:16;;;;;;;64.60;57.78;;;13.70;99.90;;;;;;4996675;28;20043;-83
2023/04/17 09:03:45;;;;;;;76.18;63.28;;;13.70;99.90;;;;;;5005196;28;20497;-83
2023/04/17 09:06:11;;;;;;;83.93;74.75;;;13.20;99.90;;;;;;5007308;28;20045;-83
2023/04/17 09:08:38;;;;;;;119.43;101.72;;;14.30;99.90;;;;;;5000345;28;20067;-82
2023/04/17 09:11:14;;;;;;;72.78;64.35;;;13.20;99.90;;;;;;4995025;28;20072;-83
2023/04/17 09:13:40;;;;;;;;;;;13.90;99.90;;;;;;5004660;28;20096;-83
2023/04/17 09:16:20;;;;;;;66.65;59.03;;;13.70;99.90;;;;;;4993235;28;19921;-83
2023/04/17 09:18:46;;;;;;;71.00;62.72;;;13.30;99.90;;;;;;5001148;28;20045;-83
2023/04/17 09:21:15;;;;;;;67.22;56.35;;;13.90;99.90;;;;;;5002536;28;20034;-83
2023/04/17 09:23:51;;;;;;;88.93;74.53;;;13.50;99.90;;;;;;5002715;28;20413;-82
2023/04/17 09:26:22;;;;;;;72.60;56.55;;;14.00;99.90;;;;;;5007498;28;20038;-82
2023/04/17 09:29:09;;;;;;;78.68;63.58;;;13.40;99.90;;;;;;4997630;28;20034;-82
2023/04/17 09:31:36;;;;;;;79.13;56.70;;;13.70;99.90;;;;;;5008225;28;20050;-82
2023/04/17 09:34:06;;;;;;;66.50;51.33;;;13.40;99.90;;;;;;5010717;28;20588;-82
2023/04/17 09:36:38;;;;;;;74.00;66.07;;;13.90;99.90;;;;;;4997123;28;20385;-82
2023/04/17 09:39:23;;;;;;;86.47;74.55;;;13.40;99.90;;;;;;4998733;28;20086;-83
2023/04/17 09:41:49;;;;;;;57.83;46.85;;;13.40;99.90;;;;;;4994613;28;20049;-82
2023/04/17 09:44:28;;;;;;;59.35;45.22;;;13.90;99.90;;;;;;5007951;28;20048;-82
2023/04/17 09:46:55;;;;;;;71.68;56.08;;;14.00;99.90;;;;;;4984479;28;20381;-83
2023/04/17 09:49:41;;;;;;;82.68;72.65;;;13.80;99.90;;;;;;4982491;28;20049;-82
2023/04/17 09:52:07;;;;;;;97.05;86.80;;;15.50;99.90;;;;;;4976698;28;20749;-84
2023/04/17 09:54:36;;;;;;;69.00;61.15;;;13.60;99.90;;;;;;4998837;28;20038;-84
2023/04/17 09:57:03;;;;;;;52.00;45.08;;;15.10;99.90;;;;;;4983880;28;20394;-84
2023/04/17 09:59:30;;;;;;;58.35;50.78;;;13.60;99.90;;;;;;4997904;28;20049;-83
2023/04/17 10:01:56;;;;;;;41.25;36.72;;;14.60;99.90;;;;;;4978127;28;20033;-83
2023/04/17 10:04:21;;;;;;;47.25;42.22;;;13.70;99.90;;;;;;5009000;28;20464;-81
2023/04/17 10:06:49;;;;;;;44.35;39.00;;;13.80;99.90;;;;;;5005380;28;20042;-83
2023/04/17 10:09:14;;;;;;;68.28;61.15;;;14.00;99.90;;;;;;4998469;28;20057;-84
2023/04/17 10:11:43;;;;;;;113.45;88.10;;;13.90;99.90;;;;;;4985707;28;20077;-82
2023/04/17 10:14:20;;;;;;;43.55;37.00;;;15.70;99.90;;;;;;4991893;28;20037;-84
2023/04/17 10:16:47;;;;;;;76.28;68.10;;;14.00;99.90;;;;;;5002164;28;20034;-84
2023/04/17 10:19:35;;;;;;;99.88;88.97;;;14.20;99.90;;;;;;4994696;28;20532;-83
2023/04/17 10:22:13;;;;;;;69.10;62.20;;;14.40;99.90;;;;;;4994039;28;20132;-83
2023/04/17 10:24:39;;;;;;;56.53;50.45;;;15.80;99.90;;;;;;4998874;28;20046;-84
2023/04/17 10:27:23;;;;;;;79.07;70.20;;;15.50;99.90;;;;;;5003791;28;20079;-83
2023/04/17 10:29:56;;;;;;;75.35;67.93;;;14.20;99.90;;;;;;4977061;28;20039;-83
2023/04/17 10:32:24;;;;;;;66.97;59.88;;;14.60;99.90;;;;;;4989305;28;20310;-83
2023/04/17 10:34:57;;;;;;;73.35;66.05;;;16.20;99.90;;;;;;4984148;28;20490;-83
2023/04/17 10:37:51;;;;;;;62.25;55.58;;;14.30;99.90;;;;;;4994994;28;20057;-83
2023/04/17 10:40:21;;;;;;;83.60;74.93;;;14.70;99.90;;;;;;4989485;28;20453;-83
2023/04/17 10:43:12;;;;;;;92.97;82.55;;;14.50;99.90;;;;;;4992096;28;20037;-83
2023/04/17 10:46:04;;;;;;;57.03;50.45;;;14.80;99.90;;;;;;4986821;28;20128;-83
2023/04/17 10:48:33;;;;;;;56.28;50.47;;;14.50;99.90;;;;;;4990290;28;20070;-83
2023/04/17 10:51:01;;;;;;;50.22;44.90;;;16.30;99.90;;;;;;5006460;28;20049;-83
2023/04/17 10:53:41;;;;;;;57.45;51.70;;;14.60;99.90;;;;;;4985358;28;20088;-83
2023/04/17 10:56:08;;;;;;;58.92;52.83;;;15.20;99.90;;;;;;4990103;28;20127;-83
2023/04/17 10:58:37;;;;;;;68.30;55.92;;;15.30;99.90;;;;;;4974989;28;20064;-83
2023/04/17 11:01:09;;;;;;;61.00;54.92;;;16.30;99.90;;;;;;4991530;28;20477;-83
2023/04/17 11:03:38;;;;;;;75.50;67.93;;;15.50;99.90;;;;;;4976083;28;20042;-82
2023/04/17 11:06:05;;;;;;;50.58;45.17;;;15.00;99.90;;;;;;4971243;28;20046;-82
2023/04/17 11:08:30;;;;;;;58.13;52.10;;;15.40;99.90;;;;;;4994010;28;20569;-82
2023/04/17 11:10:56;;;;;;;62.47;55.58;;;15.30;99.90;;;;;;4981245;28;20123;-82
2023/04/17 11:13:22;;;;;;;54.78;45.03;;;15.50;99.90;;;;;;5007904;28;20044;-82
2023/04/17 11:15:49;;;;;;;50.67;45.17;;;15.60;99.90;;;;;;4986289;28;20038;-82
2023/04/17 11:18:15;;;;;;;82.60;67.93;;;15.30;99.90;;;;;;4982232;28;20037;-82
2023/04/17 11:20:41;;;;;;;75.10;67.40;;;15.40;99.90;;;;;;4983768;28;20378;-83
2023/04/17 11:23:06;;;;;;;56.78;50.60;;;16.90;99.90;;;;;;4981173;28;20048;-82
2023/04/17 11:25:33;;;;;;;70.82;63.15;;;17.00;99.90;;;;;;4996976;28;20046;-83
2023/04/17 11:28:05;;;;;;;76.05;67.10;;;15.80;99.90;;;;;;4984876;28;20100;-83
2023/04/17 11:30:35;;;;;;;90.78;81.32;;;15.80;99.90;;;;;;4990304;28;20524;-82
2023/04/17 11:33:02;;;;;;;72.78;64.05;;;15.90;99.90;;;;;;4993540;28;20047;-82
2023/04/17 11:35:34;;;;;;;75.93;67.47;;;15.90;99.90;;;;;;4998285;28;20080;-82
2023/04/17 11:38:03;;;;;;;70.82;63.20;;;16.10;99.90;;;;;;4979738;28;20536;-82
2023/04/17 11:40:29;;;;;;;55.83;49.85;;;16.30;99.90;;;;;;5004880;28;20190;-82
2023/04/17 11:42:55;;;;;;;64.20;56.60;;;16.70;99.90;;;;;;4991336;28;20046;-81
2023/04/17 11:45:20;;;;;;;60.30;53.75;;;16.40;99.90;;;;;;4984214;28;20041;-82
2023/04/17 11:47:47;;;;;;;68.53;60.55;;;16.30;99.90;;;;;;4998374;28;20042;-83
2023/04/17 11:50:15;;;;;;;77.00;69.22;;;17.70;99.90;;;;;;4997624;28;20556;-83
2023/04/17 11:52:41;;;;;;;58.45;51.95;;;16.30;99.90;;;;;;4983224;28;20052;-81
2023/04/17 11:55:10;;;;;;;58.75;52.78;;;16.30;99.90;;;;;;4995267;28;20046;-81
2023/04/17 11:57:44;;;;;;;58.60;52.92;;;16.30;99.90;;;;;;4979564;28;20038;-82
2023/04/17 12:00:15;;;;;;;57.60;51.83;;;16.20;99.90;;;;;;4980507;28;20502;-82
2023/04/17 12:02:40;;;;;;;64.35;57.17;;;15.90;99.90;;;;;;4988182;28;20116;-81
2023/04/17 12:05:13;;;;;;;63.90;57.13;;;15.90;99.90;;;;;;4982102;28;20073;-83
2023/04/17 12:07:39;;;;;;;45.10;40.20;;;17.20;99.90;;;;;;4981650;28;20133;-82
2023/04/17 12:10:08;;;;;;;38.42;34.47;;;16.20;99.90;;;;;;4999928;28;20132;-82
2023/04/17 12:12:34;;;;;;;57.88;52.03;;;15.90;99.90;;;;;;4986754;28;20131;-81
2023/04/17 12:15:00;;;;;;;61.53;55.38;;;17.20;99.90;;;;;;5011048;28;20522;-81
2023/04/17 12:17:26;;;;;;;69.97;62.60;;;17.10;99.90;;;;;;5004735;28;20052;-83
2023/04/17 12:19:52;;;;;;;45.53;39.55;;;17.50;99.90;;;;;;4987409;28;20490;-82
2023/04/17 12:22:18;;;;;;;72.80;64.65;;;16.10;99.90;;;;;;4985501;28;20097;-81
2023/04/17 12:24:43;;;;;;;68.57;60.58;;;16.30;99.90;;;;;;4993617;28;20606;-82